createdAt,value
2022-11-11T00:00:07.523Z,58.97
2022-11-11T00:02:56.900Z,59.20
2022-11-11T00:05:44.268Z,60.07
2022-11-11T00:08:33.109Z,60.37
2022-11-11T00:11:19.834Z,61.37
2022-11-11T00:14:06.932Z,60.53
2022-11-11T00:17:11.495Z,58.47
2022-11-11T00:20:18.725Z,61.93
2022-11-11T00:23:23.364Z,60.63
2022-11-11T00:26:37.922Z,63.00
2022-11-11T00:29:21.182Z,60.13
2022-11-11T00:32:24.305Z,61.73
2022-11-11T00:35:29.231Z,63.27
2022-11-11T00:38:37.545Z,66.57
2022-11-11T00:41:27.377Z,63.33
2022-11-11T00:44:14.753Z,64.00
2022-11-11T00:47:30.897Z,66.97
2022-11-11T00:50:36.959Z,62.60
2022-11-11T00:53:27.333Z,65.70
2022-11-11T00:56:14.799Z,65.73
2022-11-11T00:59:03.410Z,66.83
2022-11-11T01:01:50.745Z,69.53
2022-11-11T01:04:37.570Z,70.17
2022-11-11T01:07:25.076Z,73.43
2022-11-11T01:10:13.070Z,71.93
2022-11-11T01:13:12.605Z,74.70
2022-11-11T01:16:03.593Z,73.70
2022-11-11T01:18:52.128Z,74.00
2022-11-11T01:21:39.142Z,73.43
2022-11-11T01:24:26.783Z,74.87
2022-11-11T01:27:13.882Z,72.33
2022-11-11T01:30:00.672Z,74.93
2022-11-11T01:32:49.175Z,76.37
2022-11-11T01:35:40.539Z,71.23
2022-11-11T01:38:27.693Z,71.60
2022-11-11T01:41:36.834Z,72.60
2022-11-11T01:44:45.078Z,71.20
2022-11-11T01:48:26.483Z,75.07
2022-11-11T01:51:03.632Z,72.80
2022-11-11T01:53:55.608Z,70.57
2022-11-11T01:56:45.205Z,74.30
2022-11-11T01:59:33.767Z,72.03
2022-11-11T02:02:26.101Z,74.17
2022-11-11T02:05:33.479Z,73.93
2022-11-11T02:08:33.574Z,71.13
2022-11-11T02:11:43.230Z,67.13
2022-11-11T02:14:39.980Z,69.47
2022-11-11T02:17:30.940Z,70.57
2022-11-11T02:20:22.119Z,64.60
2022-11-11T02:23:13.178Z,66.77
2022-11-11T02:26:05.035Z,65.07
2022-11-11T02:28:53.497Z,62.93
2022-11-11T02:31:40.874Z,65.57
2022-11-11T02:34:32.140Z,66.67
2022-11-11T02:37:22.548Z,61.00
2022-11-11T02:40:10.620Z,59.67
2022-11-11T02:42:58.979Z,62.00
2022-11-11T02:45:46.452Z,65.57
2022-11-11T02:48:34.098Z,61.67
2022-11-11T02:51:21.615Z,60.07
2022-11-11T02:54:08.957Z,58.67
2022-11-11T02:57:18.462Z,64.57
2022-11-11T03:00:08.138Z,64.40
2022-11-11T03:02:55.308Z,62.03
2022-11-11T03:05:42.588Z,65.57
2022-11-11T03:08:29.788Z,66.10
2022-11-11T03:11:28.045Z,66.60
2022-11-11T03:14:15.005Z,68.83
2022-11-11T03:17:20.872Z,69.17
2022-11-11T03:20:26.550Z,73.40
2022-11-11T03:23:15.382Z,65.83
2022-11-11T03:26:02.212Z,67.67
2022-11-11T03:28:49.786Z,67.70
2022-11-11T03:31:37.595Z,69.07
2022-11-11T03:34:25.845Z,67.80
2022-11-11T03:37:31.007Z,69.07
2022-11-11T03:40:18.321Z,67.70
2022-11-11T03:43:05.908Z,71.20
2022-11-11T03:45:53.617Z,68.47
2022-11-11T03:48:40.701Z,69.87
2022-11-11T03:51:29.100Z,69.83
2022-11-11T03:54:15.783Z,71.37
2022-11-11T03:57:19.966Z,69.30
2022-11-11T04:00:14.096Z,68.30
2022-11-11T04:03:24.571Z,73.53
2022-11-11T04:06:29.733Z,69.60
2022-11-11T04:09:35.737Z,72.50
2022-11-11T04:12:23.774Z,72.53
2022-11-11T04:15:28.499Z,74.27
2022-11-11T04:18:15.726Z,73.67
2022-11-11T04:21:19.634Z,71.70
2022-11-11T04:24:27.980Z,69.37
2022-11-11T04:27:17.741Z,75.80
2022-11-11T04:30:03.803Z,74.20
2022-11-11T04:32:50.871Z,77.53
2022-11-11T04:35:37.720Z,74.60
2022-11-11T04:38:41.996Z,74.73
2022-11-11T04:41:53.774Z,74.77
2022-11-11T04:44:54.630Z,72.77
2022-11-11T04:47:55.248Z,73.53
2022-11-11T04:50:44.355Z,74.03
2022-11-11T04:53:31.030Z,73.50
2022-11-11T04:56:35.283Z,70.80
2022-11-11T04:59:22.367Z,69.60
2022-11-11T05:02:27.801Z,74.60
2022-11-11T05:05:14.981Z,73.57
2022-11-11T05:08:19.088Z,76.13
2022-11-11T05:11:06.344Z,74.87
2022-11-11T05:14:11.510Z,72.60
2022-11-11T05:17:17.451Z,75.60
2022-11-11T05:20:24.100Z,76.70
2022-11-11T05:23:11.247Z,74.70
2022-11-11T05:25:57.605Z,77.03
2022-11-11T05:28:44.242Z,76.77
2022-11-11T05:31:31.574Z,79.97
2022-11-11T05:34:18.790Z,79.37
2022-11-11T05:37:06.987Z,81.53
2022-11-11T05:39:54.162Z,79.50
2022-11-11T05:42:49.467Z,77.50
2022-11-11T05:45:39.348Z,84.53
2022-11-11T05:48:26.294Z,81.73
2022-11-11T05:51:28.147Z,87.67
2022-11-11T05:54:16.687Z,85.63
2022-11-11T05:57:03.783Z,86.40
2022-11-11T05:59:50.422Z,88.53
2022-11-11T06:02:38.158Z,85.43
2022-11-11T06:05:24.819Z,89.60
2022-11-11T06:08:20.930Z,88.90
2022-11-11T06:11:09.503Z,87.50
2022-11-11T06:13:57.052Z,86.00
2022-11-11T06:16:43.904Z,88.93
2022-11-11T06:19:30.961Z,88.07
2022-11-11T06:22:38.516Z,92.30
2022-11-11T06:25:43.896Z,88.57
2022-11-11T06:28:32.342Z,88.33
2022-11-11T06:31:20.888Z,91.37
2022-11-11T06:34:07.897Z,92.10
2022-11-11T06:36:54.942Z,90.03
2022-11-11T06:39:41.690Z,91.17
2022-11-11T06:42:28.639Z,87.80
2022-11-11T06:45:17.238Z,94.60
2022-11-11T06:48:04.386Z,89.40
2022-11-11T06:50:51.658Z,88.87
2022-11-11T06:53:38.508Z,90.97
2022-11-11T06:56:25.519Z,87.70
2022-11-11T06:59:12.557Z,81.83
2022-11-11T07:02:00.727Z,82.10
2022-11-11T07:04:47.638Z,80.90
2022-11-11T07:07:34.618Z,81.80
2022-11-11T07:10:21.989Z,78.77
2022-11-11T07:13:09.299Z,81.43
2022-11-11T07:15:56.637Z,81.20
2022-11-11T07:18:44.653Z,80.17
2022-11-11T07:21:31.361Z,78.70
2022-11-11T07:24:18.186Z,81.33
2022-11-11T07:27:05.024Z,82.40
2022-11-11T07:29:52.003Z,84.67
2022-11-11T07:32:45.112Z,83.67
2022-11-11T07:35:33.647Z,84.20
2022-11-11T07:38:20.554Z,81.50
2022-11-11T07:41:07.944Z,85.87
2022-11-11T07:43:54.642Z,84.20
2022-11-11T07:46:41.794Z,83.17
2022-11-11T07:49:29.144Z,84.60
2022-11-11T07:52:17.788Z,82.77
2022-11-11T07:55:05.105Z,84.30
2022-11-11T07:57:53.719Z,85.20
2022-11-11T08:00:40.597Z,79.77
2022-11-11T08:03:27.828Z,81.33
2022-11-11T08:06:14.783Z,83.17
2022-11-11T08:09:03.184Z,83.80
2022-11-11T08:12:07.673Z,82.30
2022-11-11T08:14:54.616Z,82.50
2022-11-11T08:17:41.359Z,81.17
2022-11-11T08:20:28.079Z,80.37
2022-11-11T08:26:29.531Z,82.30
2022-11-11T08:29:16.933Z,82.13
2022-11-11T08:32:03.657Z,83.40
2022-11-11T08:34:50.744Z,84.90
2022-11-11T08:37:37.976Z,84.20
2022-11-11T08:40:24.613Z,83.27
2022-11-11T08:43:13.183Z,79.53
2022-11-11T08:46:00.275Z,83.97
2022-11-11T08:48:47.727Z,79.67
2022-11-11T08:51:41.887Z,83.47
2022-11-11T08:54:30.605Z,78.00
2022-11-11T08:57:17.276Z,79.40
2022-11-11T09:00:07.318Z,76.53
2022-11-11T09:02:54.428Z,78.67
2022-11-11T09:05:42.351Z,76.97
2022-11-11T09:08:29.275Z,78.33
2022-11-11T09:11:16.406Z,79.20
2022-11-11T09:14:03.421Z,79.67
2022-11-11T09:16:51.725Z,80.37
2022-11-11T09:19:38.861Z,75.00
2022-11-11T09:22:25.703Z,76.27
2022-11-11T09:25:12.517Z,80.20
2022-11-11T09:28:01.360Z,80.10
2022-11-11T09:30:48.203Z,78.57
2022-11-11T09:33:36.663Z,80.50
2022-11-11T09:36:23.626Z,76.77
2022-11-11T09:39:10.522Z,76.67
2022-11-11T09:42:06.963Z,76.37
2022-11-11T09:45:17.317Z,73.60
2022-11-11T09:48:17.136Z,77.90
2022-11-11T09:51:10.441Z,74.50
2022-11-11T09:54:03.902Z,71.57
2022-11-11T09:56:50.872Z,74.07
2022-11-11T09:59:45.820Z,72.27
2022-11-11T10:02:40.436Z,71.90
2022-11-11T10:05:34.173Z,70.90
2022-11-11T10:08:26.947Z,70.43
2022-11-11T10:11:18.119Z,72.17
2022-11-11T10:14:04.979Z,73.90
2022-11-11T10:17:03.089Z,71.57
2022-11-11T10:20:03.052Z,73.23
2022-11-11T10:22:52.599Z,71.40
2022-11-11T10:25:47.136Z,71.73
2022-11-11T10:28:38.411Z,66.47
2022-11-11T10:31:27.182Z,64.47
2022-11-11T10:34:16.771Z,65.80
2022-11-11T10:37:04.574Z,65.50
2022-11-11T10:40:03.380Z,66.87
2022-11-11T10:42:52.210Z,62.30
2022-11-11T10:45:46.751Z,66.20
2022-11-11T10:48:44.120Z,62.10
2022-11-11T10:51:39.851Z,64.50
2022-11-11T10:54:32.747Z,62.03
2022-11-11T10:57:25.383Z,60.50
2022-11-11T11:00:15.698Z,60.30
2022-11-11T11:03:12.986Z,60.40
2022-11-11T11:06:04.506Z,57.70
2022-11-11T11:08:55.586Z,58.37
2022-11-11T11:11:49.004Z,62.50
2022-11-11T11:14:40.813Z,59.30
2022-11-11T11:17:36.424Z,55.40
2022-11-11T11:20:23.794Z,56.97
2022-11-11T11:23:10.696Z,53.67
2022-11-11T11:25:57.452Z,53.70
2022-11-11T11:28:57.896Z,49.70
2022-11-11T11:31:47.673Z,48.93
2022-11-11T11:34:50.125Z,52.40
2022-11-11T11:37:51.171Z,47.03
2022-11-11T11:40:50.365Z,49.50
2022-11-11T11:43:39.131Z,46.80
2022-11-11T11:46:30.493Z,47.20
2022-11-11T11:49:27.367Z,40.23
2022-11-11T11:52:22.679Z,42.60
2022-11-11T11:55:16.920Z,42.63
2022-11-11T11:58:21.730Z,43.30
2022-11-11T12:01:14.768Z,39.37
2022-11-11T12:04:43.771Z,39.00
2022-11-11T12:08:06.476Z,38.53
2022-11-11T12:11:00.609Z,24.00
2022-11-11T12:14:06.826Z,22.10
2022-11-11T12:16:59.949Z,27.50
2022-11-11T12:19:56.601Z,37.23
2022-11-11T12:23:12.036Z,39.90
2022-11-11T12:26:09.239Z,36.37
2022-11-11T12:29:19.564Z,36.23
2022-11-11T12:32:26.741Z,40.60
2022-11-11T12:35:34.495Z,37.23
2022-11-11T12:38:42.622Z,34.77
2022-11-11T12:41:46.927Z,27.60
2022-11-11T12:44:46.497Z,22.60
2022-11-11T12:47:40.388Z,22.87
2022-11-11T12:50:32.885Z,23.87
2022-11-11T12:53:29.446Z,23.47
2022-11-11T12:56:26.921Z,24.53
2022-11-11T12:59:26.349Z,27.37
2022-11-11T13:02:33.879Z,28.20
2022-11-11T13:05:25.976Z,26.97
2022-11-11T13:08:51.050Z,29.40
2022-11-11T13:11:46.518Z,28.17
2022-11-11T13:14:48.842Z,28.30
2022-11-11T13:17:36.373Z,29.60
2022-11-11T13:20:39.291Z,30.50
2022-11-11T13:23:26.523Z,33.50
2022-11-11T13:26:26.650Z,34.20
2022-11-11T13:29:43.973Z,36.73
2022-11-11T13:32:40.671Z,31.80
2022-11-11T13:35:33.325Z,29.40
2022-11-11T13:38:31.102Z,29.70
2022-11-11T13:41:25.474Z,28.80
2022-11-11T13:44:23.380Z,29.63
2022-11-11T13:47:19.156Z,28.50
2022-11-11T13:50:13.297Z,25.43
2022-11-11T13:53:03.299Z,28.83
2022-11-11T13:55:52.231Z,34.53
2022-11-11T13:58:41.917Z,35.40
2022-11-11T14:01:41.557Z,33.70
2022-11-11T14:04:29.207Z,33.40
2022-11-11T14:10:53.756Z,29.53
2022-11-11T14:13:42.528Z,28.43
2022-11-11T14:17:01.526Z,29.20
2022-11-11T14:19:48.633Z,29.70
2022-11-11T14:22:36.329Z,31.50
2022-11-11T14:25:27.409Z,31.27
2022-11-11T14:28:29.734Z,32.67
2022-11-11T14:31:52.708Z,33.57
2022-11-11T14:34:55.980Z,33.43
2022-11-11T14:38:02.006Z,34.67
2022-11-11T14:40:49.119Z,31.77
2022-11-11T14:43:41.511Z,30.57
2022-11-11T14:46:28.584Z,29.33
2022-11-11T14:49:48.462Z,28.10
2022-11-11T14:52:39.162Z,25.63
2022-11-11T14:55:29.916Z,24.20
2022-11-11T14:58:19.547Z,22.43
2022-11-11T15:01:15.693Z,24.73
2022-11-11T15:04:05.151Z,25.77
2022-11-11T15:06:58.574Z,26.60
2022-11-11T15:10:09.734Z,27.70
2022-11-11T15:13:30.075Z,26.90
2022-11-11T15:16:26.844Z,30.27
2022-11-11T15:19:31.200Z,36.13
2022-11-11T15:22:34.109Z,38.40
2022-11-11T15:25:32.311Z,40.40
2022-11-11T15:28:42.226Z,41.53
2022-11-11T15:31:37.199Z,38.67
2022-11-11T15:34:34.320Z,40.87
2022-11-11T15:37:23.373Z,40.60
2022-11-11T15:40:20.958Z,44.00
2022-11-11T15:43:07.810Z,43.70
2022-11-11T15:45:57.140Z,43.33
2022-11-11T15:48:46.344Z,44.50
2022-11-11T15:51:34.345Z,41.50
2022-11-11T15:54:23.292Z,38.17
2022-11-11T15:57:30.552Z,39.30
2022-11-11T16:00:33.335Z,40.70
2022-11-11T16:03:23.125Z,46.63
2022-11-11T16:06:13.815Z,50.73
2022-11-11T16:09:00.779Z,50.37
2022-11-11T16:11:47.955Z,55.47
2022-11-11T16:14:40.907Z,60.20
2022-11-11T16:17:34.066Z,57.50
2022-11-11T16:20:26.526Z,58.57
2022-11-11T16:23:18.846Z,58.37
2022-11-11T16:26:06.064Z,61.40
2022-11-11T16:28:55.093Z,61.93
2022-11-11T16:31:45.101Z,55.13
2022-11-11T16:34:45.565Z,56.17
2022-11-11T16:37:52.547Z,59.53
2022-11-11T16:40:45.151Z,65.90
2022-11-11T16:43:33.697Z,66.90
2022-11-11T16:46:41.914Z,63.97
2022-11-11T16:49:33.235Z,61.30
2022-11-11T16:52:23.420Z,59.80
2022-11-11T16:55:12.072Z,57.80
2022-11-11T16:58:02.802Z,55.13
2022-11-11T17:00:50.123Z,51.90
2022-11-11T17:03:36.960Z,48.40
2022-11-11T17:06:50.056Z,48.10
2022-11-11T17:09:41.521Z,48.77
2022-11-11T17:12:32.327Z,48.40
2022-11-11T17:15:23.011Z,49.07
2022-11-11T17:18:10.132Z,47.67
2022-11-11T17:20:57.736Z,49.47
2022-11-11T17:23:44.564Z,50.67
2022-11-11T17:26:31.487Z,47.63
2022-11-11T17:29:18.540Z,46.37
2022-11-11T17:32:07.355Z,49.57
2022-11-11T17:34:54.556Z,49.27
2022-11-11T17:37:41.858Z,50.93
2022-11-11T17:40:28.666Z,52.30
2022-11-11T17:43:16.275Z,52.70
2022-11-11T17:46:03.963Z,56.27
2022-11-11T17:48:56.540Z,54.80
2022-11-11T17:51:43.347Z,58.87
2022-11-11T17:54:30.380Z,55.00
2022-11-11T17:57:17.204Z,57.10
2022-11-11T18:00:04.317Z,57.00
2022-11-11T18:02:51.545Z,62.23
2022-11-11T18:05:39.663Z,59.70
2022-11-11T18:08:26.717Z,56.93
2022-11-11T18:11:13.640Z,57.00
2022-11-11T18:14:00.164Z,52.80
2022-11-11T18:16:47.184Z,50.97
2022-11-11T18:19:34.232Z,52.40
2022-11-11T18:22:22.432Z,48.47
2022-11-11T18:25:09.827Z,48.27
2022-11-11T18:27:56.930Z,45.80
2022-11-11T18:30:45.798Z,48.13
2022-11-11T18:33:33.235Z,46.53
2022-11-11T18:36:21.699Z,45.70
2022-11-11T18:39:10.142Z,44.00
2022-11-11T18:41:57.224Z,46.27
2022-11-11T18:44:44.282Z,47.40
2022-11-11T18:47:30.944Z,49.37
2022-11-11T18:50:18.157Z,51.43
2022-11-11T18:53:05.116Z,49.50
2022-11-11T18:55:53.088Z,51.63
2022-11-11T18:58:39.896Z,51.03
2022-11-11T19:01:29.349Z,53.27
2022-11-11T19:04:16.173Z,56.10
2022-11-11T19:07:03.166Z,55.00
2022-11-11T19:09:50.059Z,57.50
2022-11-11T19:12:38.399Z,54.60
2022-11-11T19:15:25.575Z,51.30
2022-11-11T19:18:12.585Z,49.87
2022-11-11T19:20:59.324Z,50.43
2022-11-11T19:23:47.352Z,50.30
2022-11-11T19:26:34.493Z,49.30
2022-11-11T19:29:23.061Z,51.57
2022-11-11T19:32:10.255Z,50.17
2022-11-11T19:34:57.068Z,49.37
2022-11-11T19:37:44.431Z,50.00
2022-11-11T19:40:31.163Z,54.43
2022-11-11T19:43:18.213Z,54.73
2022-11-11T19:46:08.244Z,58.60
2022-11-11T19:48:56.217Z,56.90
2022-11-11T19:51:43.320Z,59.33
2022-11-11T19:54:30.008Z,61.93
2022-11-11T19:57:16.914Z,58.53
2022-11-11T20:00:03.829Z,63.80
2022-11-11T20:02:51.882Z,64.17
2022-11-11T20:05:39.157Z,64.93
2022-11-11T20:08:26.246Z,68.17
2022-11-11T20:11:13.060Z,63.80
2022-11-11T20:14:00.086Z,59.67
2022-11-11T20:16:46.958Z,63.43
2022-11-11T20:19:35.380Z,61.33
2022-11-11T20:22:22.083Z,61.80
2022-11-11T20:25:09.175Z,64.20
2022-11-11T20:27:56.104Z,65.30
2022-11-11T20:30:43.104Z,64.07
2022-11-11T20:33:29.662Z,66.57
2022-11-11T20:36:18.429Z,64.07
2022-11-11T20:39:05.362Z,59.23
2022-11-11T20:41:52.187Z,58.43
2022-11-11T20:44:39.256Z,56.40
2022-11-11T20:47:28.958Z,56.13
2022-11-11T20:50:21.192Z,56.00
2022-11-11T20:53:10.210Z,58.30
2022-11-11T20:56:01.302Z,56.10
2022-11-11T20:58:48.740Z,55.87
2022-11-11T21:01:35.846Z,53.07
2022-11-11T21:04:23.358Z,57.47
2022-11-11T21:07:10.665Z,56.40
2022-11-11T21:09:58.964Z,57.90
2022-11-11T21:12:45.974Z,57.27
2022-11-11T21:15:32.980Z,56.23
2022-11-11T21:18:20.366Z,62.40
2022-11-11T21:21:08.323Z,65.40
2022-11-11T21:23:58.920Z,64.70
2022-11-11T21:26:49.996Z,62.17
2022-11-11T21:29:36.951Z,61.20
2022-11-11T21:32:23.723Z,61.00
2022-11-11T21:35:10.742Z,60.57
2022-11-11T21:37:57.871Z,59.50
2022-11-11T21:40:44.665Z,60.10
2022-11-11T21:43:32.861Z,61.80
2022-11-11T21:46:21.610Z,60.43
2022-11-11T21:49:08.675Z,63.13
2022-11-11T21:51:55.453Z,65.63
2022-11-11T21:54:42.300Z,66.77
2022-11-11T21:57:29.505Z,66.07
2022-11-11T22:00:19.348Z,66.07
2022-11-11T22:03:06.293Z,69.10
2022-11-11T22:05:53.231Z,68.13
2022-11-11T22:08:41.019Z,72.60
2022-11-11T22:11:31.150Z,74.57
2022-11-11T22:14:17.744Z,76.10
2022-11-11T22:17:06.208Z,74.13
2022-11-11T22:19:53.206Z,77.03
2022-11-11T22:22:40.746Z,74.17
2022-11-11T22:25:28.065Z,71.20
2022-11-11T22:28:15.144Z,76.00
2022-11-11T22:31:06.318Z,73.40
2022-11-11T22:33:57.655Z,78.00
2022-11-11T22:36:44.628Z,78.20
2022-11-11T22:39:31.536Z,73.07
2022-11-11T22:42:18.454Z,73.10
2022-11-11T22:45:05.992Z,76.53
2022-11-11T22:47:52.640Z,75.37
2022-11-11T22:50:40.578Z,72.80
2022-11-11T22:53:27.466Z,72.63
2022-11-11T22:56:15.899Z,74.10
2022-11-11T22:59:04.455Z,71.00
2022-11-11T23:01:52.021Z,70.20
2022-11-11T23:04:39.535Z,67.50
2022-11-11T23:07:27.579Z,68.53
2022-11-11T23:10:14.416Z,69.37
2022-11-11T23:13:01.369Z,65.20
2022-11-11T23:15:53.562Z,65.90
2022-11-11T23:18:40.932Z,68.10
2022-11-11T23:21:29.486Z,66.70
2022-11-11T23:24:17.835Z,63.90
2022-11-11T23:27:04.803Z,65.03
2022-11-11T23:29:52.779Z,64.87
2022-11-11T23:32:39.992Z,61.63
2022-11-11T23:35:26.950Z,60.10
2022-11-11T23:38:13.793Z,62.23
2022-11-11T23:41:02.368Z,62.13
2022-11-11T23:43:49.290Z,64.67
2022-11-11T23:46:36.450Z,59.90
2022-11-11T23:49:23.414Z,63.67
2022-11-11T23:52:10.296Z,61.87
2022-11-11T23:54:57.167Z,62.77
2022-11-11T23:57:45.525Z,64.40
